• Join FlightAware (Why Join?)
  • Login
  • US Flag GB Flag 
11:09 EDT


 

Airport Tracker/Info


-or-


 

Live Flight TrackerFlight Track Log ✈ JBU1329 ✈ 25-Apr-2013 ✈ KBOS - KBWI

Flight Track Log - Related Links

Times and Time Zones

All times are in EDT time to prevent confusion due to time zone crossing. See the JBU1329 flight status page for this flight to view local times or setup timezone preferences in your user account.

Time Position Orientation Groundspeed Altitude Reporting Facility
EDT Latitude Longitude Course Direction KTS MPH feet Rate Location/Type
08:21 42.3500 -71.0167 236° Southwest 149 171 500  Level KA90
08:23 42.3167 -71.0833 236° Southwest 202 232 3,200 2,760 Climbing KA90
08:24 42.2761 -71.1381 225° Southwest 217 250 7,100 3,420 Climbing Boston Center
08:25 42.2500 -71.2144 245° Southwest 222 255 10,300 3,060 Climbing Boston Center
08:26 42.2258 -71.2989 249° West 233 268 13,300 2,940 Climbing Boston Center
08:27 42.2058 -71.3947 254° West 253 291 16,200 2,220 Climbing Boston Center
08:28 42.1881 -71.4931 256° West 271 312 17,800 1,320 Climbing Boston Center
08:29 42.1597 -71.6083 252° West 292 336 18,900 1,560 Climbing Boston Center
08:30 42.1356 -71.7289 255° West 326 375 21,000 1,920 Climbing Boston Center
08:32 42.0889 -71.9644 255° West 333 383 24,800 1,740 Climbing Boston Center
08:33 42.0644 -72.0878 255° West 338 389 26,300 1,560 Climbing Boston Center
08:34 42.0397 -72.2081 255° West 338 389 28,000 1,500 Climbing Boston Center
08:35 42.0147 -72.3339 255° West 343 395 29,400 1,500 Climbing Boston Center
08:36 41.9878 -72.4597 254° West 343 395 31,000 1,260 Climbing Boston Center
08:37 41.9628 -72.5797 254° West 343 395 32,000 480 Climbing Boston Center
08:38 41.9292 -72.7025 250° West 343 395 32,000  Level Boston Center
08:39 41.8642 -72.7914 226° Southwest 336 387 32,000  Level Boston Center
08:40 41.7950 -72.8883 226° Southwest 347 399 32,000  Level Boston Center
08:41 41.7281 -72.9825 226° Southwest 359 413 32,000  Level Boston Center
08:42 41.6608 -73.0736 225° Southwest 359 413 32,000  Level Boston Center
08:44 41.5206 -73.2622 225° Southwest 343 395 32,000  Level New York Center
08:45 41.4583 -73.3486 226° Southwest 348 400 32,000  Level New York Center
08:46 41.3897 -73.4397 225° Southwest 348 400 32,000  Level New York Center
08:47 41.3211 -73.5311 225° Southwest 348 400 32,000  Level New York Center
08:48 41.2561 -73.6303 229° Southwest 348 400 32,000  Level New York Center
08:49 41.1933 -73.7325 231° Southwest 354 407 32,000  Level New York Center
08:50 41.1322 -73.8372 232° Southwest 365 420 32,000  Level New York Center
08:51 41.0692 -73.9417 231° Southwest 365 420 32,000 -660 Level New York Center
08:52 41.0081 -74.0433 231° Southwest 365 420 30,800 -1,320 Descending New York Center
08:53 40.9467 -74.1475 232° Southwest 365 420 29,400 -1,440 Descending New York Center
08:54 40.8836 -74.2431 229° Southwest 365 420 28,000 -1,380 Descending New York Center
08:55 40.8264 -74.3417 233° Southwest 358 412 26,700 -1,020 Descending New York Center
08:56 40.7717 -74.4319 231° Southwest 347 399 26,000 -360 Descending New York Center
08:57 40.7144 -74.5219 230° Southwest 335 386 26,000  Level New York Center
08:58 40.6594 -74.6147 232° Southwest 335 386 26,000  Level New York Center
08:59 40.6044 -74.7072 232° Southwest 335 386 26,000  Level New York Center
09:00 40.5450 -74.7939 228° Southwest 335 386 26,000 -480 Level New York Center
09:01 40.4836 -74.8831 228° Southwest 335 386 25,100 -1,140 Descending New York Center
09:02 40.4244 -74.9667 227° Southwest 329 379 23,800 -1,260 Descending New York Center
09:03 40.3653 -75.0503 227° Southwest 324 373 22,600 -1,200 Descending New York Center
09:04 40.3081 -75.1311 227° Southwest 319 367 21,500 -1,200 Descending New York Center
09:05 40.2531 -75.2094 227° Southwest 306 352 20,300 -1,200 Descending New York Center
09:06 40.1978 -75.2900 228° Southwest 306 352 19,200 -1,200 Descending New York Center
09:07 40.1342 -75.3756 226° Southwest 306 352 18,000 -600 Descending New York Center
09:08 40.0769 -75.4503 225° Southwest 306 352 18,000  Level New York Center
09:09 40.0219 -75.5253 226° Southwest 306 352 18,000  Level New York Center
09:10 39.9667 -75.6000 226° Southwest 301 346 18,000  Level New York Center
09:11 39.9133 -75.6775 228° Southwest 301 346 18,000 -420 Level New York Center
09:12 39.8681 -75.7664 236° Southwest 296 341 17,200 -1,020 Descending New York Center
09:14 39.7833 -75.9500 239° Southwest 285 328 15,000 -1,200 Descending Potomac TRACON
09:15 39.7333 -76.0167 226° Southwest 288 331 13,700 -1,620 Descending Potomac TRACON
09:16 39.6833 -76.0833 226° Southwest 284 327 12,000 -1,680 Descending Potomac TRACON
09:17 39.6167 -76.1500 218° Southwest 272 313 10,500 -1,620 Descending Potomac TRACON
09:18 39.5667 -76.2167 226° Southwest 268 308 8,800 -1,620 Descending Potomac TRACON
09:19 39.5000 -76.2833 218° Southwest 264 304 7,200 -1,560 Descending Potomac TRACON
09:20 39.4500 -76.3500 226° Southwest 268 308 5,700 -1,200 Descending Potomac TRACON
09:21 39.4000 -76.4000 218° Southwest 278 320 5,000 -840 Descending Potomac TRACON
09:22 39.3167 -76.4000 180° South 285 328 4,100 -480 Descending Potomac TRACON
09:23 39.2333 -76.4167 189° South 280 322 4,000 -60 Descending Potomac TRACON
09:24 39.1833 -76.4333 194° South 238 274 4,000 -60 Level Potomac TRACON
09:25 39.1167 -76.4667 201° Southwest 229 264 3,900 -600 Descending Potomac TRACON
09:26 39.0667 -76.5000 207° Southwest 222 255 2,800 -960 Descending Potomac TRACON
09:27 39.0667 -76.5667 270° West 204 235 2,000 -540 Descending Potomac TRACON
09:28 39.1000 -76.6000 322° Northwest 162 186 1,700 -540 Descending Potomac TRACON
09:29 39.1333 -76.6333 322° Northwest 139 160 1,000 -780 Descending Potomac TRACON
09:31 39.1754 -76.6683 218° Southwest  Level Estimated
09:38 39.1754 -76.6683 270° West  Level Estimated
09:39 39.1754 -76.6683 270° West  Level Estimated
09:40 39.1754 -76.6683 270° West  Level Estimated
09:41 39.1754 -76.6683 270° West  Level Estimated